createdAt,value
2019-04-29T00:00:58.453Z,305.16
2019-04-29T00:01:58.441Z,305.62
2019-04-29T00:02:58.475Z,305.79
2019-04-29T00:03:58.408Z,305.35
2019-04-29T00:04:58.401Z,305.57
2019-04-29T00:05:58.405Z,305.22
2019-04-29T00:06:58.401Z,305.54
2019-04-29T00:07:58.376Z,306.02
2019-04-29T00:08:58.381Z,305.51
2019-04-29T00:09:58.365Z,305.46
2019-04-29T00:10:58.341Z,304.91
2019-04-29T00:11:58.350Z,305.19
2019-04-29T00:12:58.350Z,305.65
2019-04-29T00:13:58.316Z,305.43
2019-04-29T00:14:58.310Z,305.54
2019-04-29T00:15:58.286Z,305.22
2019-04-29T00:16:58.278Z,305.24
2019-04-29T00:17:58.290Z,305.72
2019-04-29T00:18:58.248Z,305.35
2019-04-29T00:19:58.253Z,305.58
2019-04-29T00:20:58.244Z,305.40
2019-04-29T00:21:58.225Z,305.22
2019-04-29T00:22:58.215Z,305.13
2019-04-29T00:24:04.056Z,305.69
2019-04-29T00:24:59.199Z,305.22
2019-04-29T00:25:58.185Z,305.56
2019-04-29T00:26:58.162Z,305.29
2019-04-29T00:27:58.155Z,305.50
2019-04-29T00:28:58.235Z,305.79
2019-04-29T00:29:58.169Z,305.22
2019-04-29T00:30:58.115Z,305.51
2019-04-29T00:31:58.110Z,305.76
2019-04-29T00:32:58.104Z,305.23
2019-04-29T00:33:58.090Z,305.71
2019-04-29T00:34:58.073Z,305.47
2019-04-29T00:35:58.089Z,305.20
2019-04-29T00:36:58.085Z,305.36
2019-04-29T00:37:58.064Z,305.24
2019-04-29T00:38:58.039Z,305.33
2019-04-29T00:39:58.014Z,305.20
2019-04-29T00:40:58.010Z,305.58
2019-04-29T00:41:58.021Z,305.67
2019-04-29T00:42:57.995Z,305.59
2019-04-29T00:43:57.999Z,305.53
2019-04-29T00:44:57.974Z,305.12
2019-04-29T00:45:57.976Z,305.53
2019-04-29T00:46:57.974Z,305.34
2019-04-29T00:47:57.937Z,305.03
2019-04-29T00:48:57.948Z,305.10
2019-04-29T00:49:57.918Z,305.56
2019-04-29T00:50:57.891Z,305.22
2019-04-29T00:51:57.902Z,305.46
2019-04-29T00:52:57.883Z,305.67
2019-04-29T00:53:57.889Z,305.09
2019-04-29T00:54:57.863Z,305.67
2019-04-29T00:55:57.863Z,305.04
2019-04-29T00:56:57.842Z,305.14
2019-04-29T00:57:57.835Z,305.56
2019-04-29T00:58:57.873Z,305.34
2019-04-29T00:59:57.805Z,305.39
2019-04-29T01:00:57.788Z,305.28
2019-04-29T01:01:57.773Z,305.20
2019-04-29T01:02:57.786Z,305.35
2019-04-29T01:03:57.776Z,305.03
2019-04-29T01:04:57.753Z,305.43
2019-04-29T01:05:57.743Z,305.39
2019-04-29T01:06:57.741Z,304.84
2019-04-29T01:07:57.709Z,305.24
2019-04-29T01:08:57.701Z,305.33
2019-04-29T01:09:57.735Z,305.08
2019-04-29T01:10:57.684Z,305.27
2019-04-29T01:11:57.671Z,305.48
2019-04-29T01:12:57.657Z,305.08
2019-04-29T01:13:57.644Z,305.05
2019-04-29T01:14:57.646Z,306.01
2019-04-29T01:15:57.659Z,305.81
2019-04-29T01:16:57.623Z,305.15
2019-04-29T01:17:57.637Z,304.91
2019-04-29T01:18:57.614Z,305.71
2019-04-29T01:19:57.576Z,305.20
2019-04-29T01:20:57.573Z,305.52
2019-04-29T01:21:57.574Z,305.37
2019-04-29T01:22:57.556Z,305.33
2019-04-29T01:23:57.554Z,305.16
2019-04-29T01:24:57.544Z,305.73
2019-04-29T01:25:57.515Z,305.28
2019-04-29T01:26:57.530Z,305.55
2019-04-29T01:27:57.510Z,305.34
2019-04-29T01:28:57.491Z,305.26
2019-04-29T01:29:57.495Z,305.50
2019-04-29T01:30:57.486Z,305.49
2019-04-29T01:31:57.460Z,304.88
2019-04-29T01:32:57.438Z,305.93
2019-04-29T01:33:57.427Z,305.66
2019-04-29T01:34:57.418Z,305.30
2019-04-29T01:35:57.412Z,305.26
2019-04-29T01:36:57.419Z,305.50
2019-04-29T01:37:57.392Z,305.14
2019-04-29T01:38:57.412Z,305.13
2019-04-29T01:39:57.358Z,304.90
2019-04-29T01:40:57.351Z,305.46
2019-04-29T01:41:57.355Z,305.03
2019-04-29T01:42:57.350Z,305.17
2019-04-29T01:43:57.314Z,305.26
2019-04-29T01:44:57.319Z,305.10
2019-04-29T01:45:57.294Z,305.60
2019-04-29T01:46:57.291Z,305.32
2019-04-29T01:47:57.295Z,305.50
2019-04-29T01:48:57.292Z,304.97
2019-04-29T01:49:57.255Z,305.47
2019-04-29T01:50:57.242Z,305.06
2019-04-29T01:51:57.228Z,305.64
2019-04-29T01:52:57.234Z,305.27
2019-04-29T01:53:57.209Z,305.56
2019-04-29T01:54:57.198Z,304.93
2019-04-29T01:55:57.215Z,305.59
2019-04-29T01:56:57.189Z,305.25
2019-04-29T01:57:57.189Z,305.28
2019-04-29T01:58:57.157Z,305.62
2019-04-29T01:59:57.150Z,305.24
2019-04-29T02:00:57.148Z,305.61
2019-04-29T02:01:57.130Z,305.18
2019-04-29T02:02:57.137Z,305.09
2019-04-29T02:03:57.108Z,305.57
2019-04-29T02:04:57.103Z,305.37
2019-04-29T02:05:57.088Z,305.12
2019-04-29T02:06:57.067Z,305.18
2019-04-29T02:07:57.060Z,305.65
2019-04-29T02:08:57.074Z,305.48
2019-04-29T02:09:57.061Z,305.23
2019-04-29T02:10:57.032Z,305.70
2019-04-29T02:11:57.012Z,305.72
2019-04-29T02:12:57.021Z,305.34
2019-04-29T02:13:56.999Z,305.55
2019-04-29T02:14:56.989Z,305.77
2019-04-29T02:15:56.974Z,305.68
2019-04-29T02:16:56.955Z,305.31
2019-04-29T02:17:56.962Z,305.28
2019-04-29T02:18:56.938Z,305.59
2019-04-29T02:19:56.939Z,305.22
2019-04-29T02:20:56.917Z,305.82
2019-04-29T02:21:56.918Z,305.63
2019-04-29T02:22:56.929Z,305.77
2019-04-29T02:23:56.871Z,305.82
2019-04-29T02:24:56.871Z,305.42
2019-04-29T02:25:56.878Z,305.69
2019-04-29T02:26:56.839Z,305.25
2019-04-29T02:27:56.853Z,305.35
2019-04-29T02:28:56.883Z,306.01
2019-04-29T02:29:56.814Z,305.96
2019-04-29T02:30:56.800Z,305.31
2019-04-29T02:31:56.791Z,306.00
2019-04-29T02:32:56.816Z,305.55
2019-04-29T02:33:56.782Z,305.52
2019-04-29T02:34:56.788Z,305.90
2019-04-29T02:35:56.751Z,305.78
2019-04-29T02:36:56.756Z,305.06
2019-04-29T02:37:56.738Z,305.44
2019-04-29T02:38:56.735Z,305.82
2019-04-29T02:39:56.708Z,305.60
2019-04-29T02:40:56.701Z,305.70
2019-04-29T02:41:56.695Z,306.16
2019-04-29T02:42:56.679Z,305.92
2019-04-29T02:43:56.679Z,306.01
2019-04-29T02:44:56.664Z,305.73
2019-04-29T02:45:56.660Z,305.31
2019-04-29T02:46:56.626Z,305.45
2019-04-29T02:47:56.648Z,305.69
2019-04-29T02:48:56.627Z,305.66
2019-04-29T02:49:56.593Z,306.02
2019-04-29T02:50:56.581Z,305.61
2019-04-29T02:51:56.578Z,306.00
2019-04-29T02:52:56.568Z,305.97
2019-04-29T02:53:56.574Z,305.72
2019-04-29T02:54:56.537Z,305.31
2019-04-29T02:55:56.528Z,305.82
2019-04-29T02:56:56.514Z,306.06
2019-04-29T02:57:56.508Z,305.86
2019-04-29T02:58:56.515Z,305.52
2019-04-29T02:59:56.494Z,305.24
2019-04-29T03:00:56.481Z,305.75
2019-04-29T03:01:56.460Z,306.02
2019-04-29T03:02:56.454Z,305.51
2019-04-29T03:03:56.481Z,305.52
2019-04-29T03:04:56.439Z,305.51
2019-04-29T03:05:56.440Z,305.81
2019-04-29T03:06:56.423Z,305.60
2019-04-29T03:07:56.394Z,305.42
2019-04-29T03:08:56.404Z,306.44
2019-04-29T03:09:56.387Z,306.16
2019-04-29T03:10:56.416Z,305.94
2019-04-29T03:11:56.375Z,305.88
2019-04-29T03:12:56.353Z,305.25
2019-04-29T03:13:56.342Z,305.68
2019-04-29T03:14:56.345Z,305.81
2019-04-29T03:15:56.313Z,306.04
2019-04-29T03:16:56.317Z,306.03
2019-04-29T03:17:56.295Z,305.95
2019-04-29T03:18:56.284Z,305.76
2019-04-29T03:19:56.283Z,305.66
2019-04-29T03:20:56.250Z,306.10
2019-04-29T03:21:56.266Z,305.65
2019-04-29T03:22:56.226Z,306.02
2019-04-29T03:23:56.235Z,306.10
2019-04-29T03:24:56.249Z,305.96
2019-04-29T03:25:56.210Z,306.20
2019-04-29T03:26:56.194Z,305.71
2019-04-29T03:27:56.169Z,306.12
2019-04-29T03:28:56.157Z,305.79
2019-04-29T03:29:56.171Z,305.87
2019-04-29T03:30:56.131Z,305.89
2019-04-29T03:31:56.255Z,306.42
2019-04-29T03:32:56.122Z,306.11
2019-04-29T03:33:56.110Z,306.05
2019-04-29T03:34:56.132Z,306.52
2019-04-29T03:35:56.101Z,306.10
2019-04-29T03:36:56.097Z,305.82
2019-04-29T03:37:56.069Z,305.66
2019-04-29T03:38:56.065Z,305.67
2019-04-29T03:39:56.067Z,306.18
2019-04-29T03:40:56.033Z,306.05
2019-04-29T03:41:56.017Z,305.96
2019-04-29T03:42:56.066Z,306.04
2019-04-29T03:43:56.002Z,305.92
2019-04-29T03:44:56.171Z,305.75
2019-04-29T03:45:56.004Z,306.16
2019-04-29T03:46:55.972Z,305.73
2019-04-29T03:47:55.955Z,305.86
2019-04-29T03:48:55.946Z,305.91
2019-04-29T03:49:55.940Z,306.20
2019-04-29T03:50:55.945Z,306.06
2019-04-29T03:51:56.009Z,305.73
2019-04-29T03:52:55.908Z,305.98
2019-04-29T03:53:55.892Z,306.20
2019-04-29T03:54:55.889Z,305.88
2019-04-29T03:55:55.901Z,305.92
2019-04-29T03:56:55.857Z,306.03
2019-04-29T03:57:55.856Z,305.77
2019-04-29T03:58:55.892Z,305.47
2019-04-29T03:59:57.095Z,306.07
2019-04-29T04:00:55.812Z,305.73
2019-04-29T04:01:55.811Z,306.02
2019-04-29T04:02:55.786Z,306.09
2019-04-29T04:03:55.783Z,306.55
2019-04-29T04:04:55.808Z,306.08
2019-04-29T04:05:55.753Z,305.99
2019-04-29T04:06:55.744Z,305.87
2019-04-29T04:07:55.748Z,306.07
2019-04-29T04:09:05.592Z,305.72
2019-04-29T04:09:57.199Z,306.00
2019-04-29T04:10:55.722Z,305.61
2019-04-29T04:11:55.685Z,305.77
2019-04-29T04:12:55.673Z,306.16
2019-04-29T04:13:55.669Z,306.00
2019-04-29T04:14:55.650Z,305.91
2019-04-29T04:15:56.070Z,306.09
2019-04-29T04:16:55.643Z,306.41
2019-04-29T04:17:55.643Z,306.11
2019-04-29T04:18:55.622Z,306.11
2019-04-29T04:19:55.611Z,305.57
2019-04-29T04:20:55.604Z,305.95
2019-04-29T04:21:55.604Z,306.05
2019-04-29T04:22:55.576Z,306.48
2019-04-29T04:23:58.182Z,305.83
2019-04-29T04:24:55.552Z,306.06
2019-04-29T04:25:55.565Z,306.06
2019-04-29T04:26:55.528Z,306.18
2019-04-29T04:27:55.518Z,306.49
2019-04-29T04:28:55.512Z,306.11
2019-04-29T04:29:55.498Z,306.22
2019-04-29T04:30:55.491Z,306.04
2019-04-29T04:31:55.503Z,306.11
2019-04-29T04:32:55.454Z,306.04
2019-04-29T04:33:55.465Z,305.97
2019-04-29T04:34:55.440Z,305.91
2019-04-29T04:35:55.443Z,306.11
2019-04-29T04:36:55.448Z,305.84
2019-04-29T04:37:55.402Z,305.99
2019-04-29T04:38:55.386Z,305.97
2019-04-29T04:39:55.391Z,306.21
2019-04-29T04:40:55.378Z,306.12
2019-04-29T04:41:55.386Z,306.15
2019-04-29T04:42:55.365Z,305.69
2019-04-29T04:43:55.356Z,305.68
2019-04-29T04:44:55.338Z,306.57
2019-04-29T04:45:55.322Z,306.03
2019-04-29T04:46:55.324Z,305.74
2019-04-29T04:47:55.304Z,306.06
2019-04-29T04:48:55.304Z,306.08
2019-04-29T04:49:55.291Z,306.35
2019-04-29T04:50:55.266Z,306.39
2019-04-29T04:51:55.257Z,305.82
2019-04-29T04:52:55.253Z,306.11
2019-04-29T04:53:55.244Z,306.15
2019-04-29T04:54:55.225Z,305.90
2019-04-29T04:55:55.218Z,306.13
2019-04-29T04:56:55.217Z,305.82
2019-04-29T04:57:55.186Z,305.90
2019-04-29T04:58:55.177Z,306.05
2019-04-29T04:59:55.164Z,306.46
2019-04-29T05:00:55.157Z,306.31
2019-04-29T05:01:55.168Z,306.24
2019-04-29T05:02:55.213Z,305.86
2019-04-29T05:03:55.119Z,305.79
2019-04-29T05:04:55.127Z,306.04
2019-04-29T05:05:55.103Z,306.08
2019-04-29T05:06:55.100Z,306.05
2019-04-29T05:07:55.073Z,305.96
2019-04-29T05:08:55.089Z,306.62
2019-04-29T05:09:55.059Z,305.56
2019-04-29T05:10:55.041Z,306.10
2019-04-29T05:11:55.052Z,306.37
2019-04-29T05:12:55.027Z,305.83
2019-04-29T05:13:55.026Z,306.19
2019-04-29T05:14:55.006Z,305.81
2019-04-29T05:15:54.985Z,306.08
2019-04-29T05:16:54.998Z,306.31
2019-04-29T05:17:54.966Z,306.62
2019-04-29T05:18:54.945Z,306.63
2019-04-29T05:19:54.945Z,305.48
2019-04-29T05:20:54.958Z,306.18
2019-04-29T05:21:54.945Z,306.18
2019-04-29T05:22:54.911Z,305.92
2019-04-29T05:23:54.919Z,305.77
2019-04-29T05:24:54.889Z,306.18
2019-04-29T05:25:54.879Z,306.06
2019-04-29T05:26:54.901Z,306.27
2019-04-29T05:27:54.867Z,306.40
2019-04-29T05:28:54.844Z,305.84
2019-04-29T05:29:54.828Z,306.00
2019-04-29T05:30:54.814Z,306.01
2019-04-29T05:31:54.838Z,306.25
2019-04-29T05:32:54.813Z,306.66
2019-04-29T05:33:54.794Z,305.93
2019-04-29T05:34:55.140Z,306.20
2019-04-29T05:35:56.888Z,306.39
2019-04-29T05:36:55.776Z,306.90
2019-04-29T05:37:56.795Z,305.76
2019-04-29T05:38:54.729Z,306.58
2019-04-29T05:39:54.728Z,306.25
2019-04-29T05:40:56.859Z,306.21
2019-04-29T05:41:54.720Z,305.79
2019-04-29T05:42:54.724Z,305.85
2019-04-29T05:43:54.685Z,305.76
2019-04-29T05:44:54.686Z,305.74
2019-04-29T05:45:54.664Z,306.48
2019-04-29T05:46:54.674Z,306.48
2019-04-29T05:47:56.979Z,305.52
2019-04-29T05:48:54.621Z,306.36
2019-04-29T05:49:54.634Z,306.24
2019-04-29T05:50:54.621Z,306.15
2019-04-29T05:51:57.609Z,305.86
2019-04-29T05:52:55.586Z,306.05
2019-04-29T05:53:55.852Z,306.45
2019-04-29T05:54:54.564Z,305.93
2019-04-29T05:55:54.548Z,306.40
2019-04-29T05:56:54.552Z,305.97
2019-04-29T05:57:55.854Z,305.87
2019-04-29T05:58:55.519Z,306.23
2019-04-29T05:59:54.504Z,305.83
2019-04-29T06:00:54.487Z,305.84
2019-04-29T06:01:54.508Z,306.16
2019-04-29T06:02:54.470Z,306.18
2019-04-29T06:03:54.462Z,306.22
2019-04-29T06:04:54.467Z,306.08
2019-04-29T06:05:54.444Z,305.96
2019-04-29T06:06:54.433Z,306.08
2019-04-29T06:07:56.210Z,305.99
2019-04-29T06:08:55.409Z,306.25
2019-04-29T06:09:54.395Z,306.40
2019-04-29T06:10:54.381Z,306.30
2019-04-29T06:11:54.376Z,306.13
2019-04-29T06:12:54.387Z,305.88
2019-04-29T06:13:54.347Z,306.08
2019-04-29T06:14:54.334Z,306.02
2019-04-29T06:15:54.411Z,305.56
2019-04-29T06:16:57.596Z,306.05
2019-04-29T06:17:55.335Z,306.53
2019-04-29T06:18:59.786Z,305.87
2019-04-29T06:19:55.281Z,305.75
2019-04-29T06:21:07.889Z,305.84
2019-04-29T06:21:55.259Z,306.12
2019-04-29T06:22:54.270Z,305.63
2019-04-29T06:23:54.738Z,305.90
2019-04-29T06:24:54.239Z,305.94
2019-04-29T06:25:54.231Z,306.09
2019-04-29T06:26:54.216Z,306.43
2019-04-29T06:27:54.216Z,306.20
2019-04-29T06:28:54.187Z,306.02
2019-04-29T06:29:54.176Z,306.00
2019-04-29T06:30:54.186Z,306.33
2019-04-29T06:31:54.166Z,306.37
2019-04-29T06:32:54.177Z,306.05
2019-04-29T06:33:54.123Z,306.14
2019-04-29T06:34:54.116Z,305.80
2019-04-29T06:35:56.928Z,306.02
2019-04-29T06:36:54.099Z,306.59
2019-04-29T06:37:54.115Z,305.65
2019-04-29T06:38:54.080Z,306.05
2019-04-29T06:39:54.058Z,305.99
2019-04-29T06:40:54.051Z,306.62
2019-04-29T06:41:54.056Z,306.37
2019-04-29T06:42:55.203Z,306.24
2019-04-29T06:43:56.060Z,306.53
2019-04-29T06:44:54.000Z,306.23
2019-04-29T06:45:53.994Z,306.35
2019-04-29T06:46:54.574Z,306.10
2019-04-29T06:47:53.997Z,306.13
2019-04-29T06:48:53.974Z,306.27
2019-04-29T06:49:53.951Z,306.33
2019-04-29T06:50:53.970Z,306.49
2019-04-29T06:51:53.938Z,306.03
2019-04-29T06:52:53.936Z,306.16
2019-04-29T06:53:53.901Z,306.51
2019-04-29T06:54:53.916Z,306.07
2019-04-29T06:55:53.893Z,305.92
2019-04-29T06:56:53.868Z,305.91
2019-04-29T06:57:53.882Z,306.29
2019-04-29T06:58:53.849Z,306.10
2019-04-29T06:59:54.905Z,306.00
2019-04-29T07:00:55.929Z,305.92
2019-04-29T07:01:54.833Z,305.88
2019-04-29T07:02:53.840Z,306.47
2019-04-29T07:03:55.735Z,306.12
2019-04-29T07:04:54.784Z,305.98
2019-04-29T07:05:53.774Z,306.11
2019-04-29T07:06:57.510Z,305.82
2019-04-29T07:07:53.767Z,305.94
2019-04-29T07:08:53.748Z,306.14
2019-04-29T07:09:56.706Z,305.95
2019-04-29T07:10:55.894Z,306.28
2019-04-29T07:12:01.131Z,305.95
2019-04-29T07:12:54.723Z,305.99
2019-04-29T07:13:57.695Z,306.26
2019-04-29T07:14:54.678Z,306.25
2019-04-29T07:15:53.673Z,306.41
2019-04-29T07:16:53.646Z,306.21
2019-04-29T07:17:53.665Z,305.85
2019-04-29T07:18:53.892Z,306.40
2019-04-29T07:19:57.447Z,306.13
2019-04-29T07:20:54.611Z,305.72
2019-04-29T07:21:56.458Z,306.15
2019-04-29T07:22:56.536Z,306.22
2019-04-29T07:23:54.585Z,306.63
2019-04-29T07:24:53.570Z,306.34
2019-04-29T07:25:53.554Z,305.99
2019-04-29T07:26:53.545Z,306.13
2019-04-29T07:27:53.533Z,306.04
2019-04-29T07:28:55.285Z,306.15
2019-04-29T07:29:53.509Z,306.06
2019-04-29T07:31:02.662Z,306.80
2019-04-29T07:31:54.489Z,306.51
2019-04-29T07:32:53.489Z,306.80
2019-04-29T07:33:57.548Z,306.48
2019-04-29T07:34:53.465Z,306.60
2019-04-29T07:35:53.451Z,306.80
2019-04-29T07:36:57.618Z,306.33
2019-04-29T07:37:54.418Z,306.55
2019-04-29T07:38:56.695Z,306.81
2019-04-29T07:39:53.394Z,305.52
2019-04-29T07:40:53.398Z,306.45
2019-04-29T07:41:53.740Z,306.68
2019-04-29T07:42:53.362Z,306.68
2019-04-29T07:43:53.382Z,306.47
2019-04-29T07:44:54.163Z,306.48
2019-04-29T07:45:53.340Z,306.40
2019-04-29T07:47:00.370Z,306.50
2019-04-29T07:47:56.704Z,306.86
2019-04-29T07:49:01.467Z,306.73
2019-04-29T07:49:54.303Z,306.54
2019-04-29T07:50:53.277Z,306.36
2019-04-29T07:51:53.270Z,306.83
2019-04-29T07:52:53.284Z,306.82
2019-04-29T07:53:53.273Z,306.60
2019-04-29T07:54:56.126Z,306.57
2019-04-29T07:55:53.232Z,306.37
2019-04-29T07:56:53.208Z,306.30
2019-04-29T07:57:53.277Z,306.38
2019-04-29T07:58:53.236Z,306.50
2019-04-29T07:59:53.187Z,306.32
2019-04-29T08:00:56.142Z,306.04
2019-04-29T08:01:55.591Z,305.81
2019-04-29T08:02:54.132Z,305.95
2019-04-29T08:03:53.134Z,305.91
2019-04-29T08:04:53.599Z,306.48
2019-04-29T08:05:53.116Z,306.13
2019-04-29T08:06:53.121Z,306.08
2019-04-29T08:07:53.094Z,306.10
2019-04-29T08:08:55.134Z,306.29
2019-04-29T08:09:53.107Z,306.06
2019-04-29T08:10:56.583Z,305.83
2019-04-29T08:11:53.047Z,306.02
2019-04-29T08:12:53.043Z,306.13
2019-04-29T08:13:53.102Z,306.09
2019-04-29T08:14:53.305Z,306.61
2019-04-29T08:15:53.023Z,306.07
2019-04-29T08:16:53.006Z,305.68
2019-04-29T08:18:05.945Z,306.20
2019-04-29T08:18:54.920Z,306.12
2019-04-29T08:19:53.006Z,306.50
2019-04-29T08:20:52.947Z,305.83
2019-04-29T08:21:52.941Z,306.01
2019-04-29T08:22:52.919Z,305.99
2019-04-29T08:23:52.939Z,305.95
2019-04-29T08:24:52.922Z,305.65
2019-04-29T08:25:57.311Z,305.83
2019-04-29T08:26:53.891Z,305.98
2019-04-29T08:27:52.876Z,306.25
2019-04-29T08:28:59.934Z,305.39
2019-04-29T08:29:53.846Z,305.85
2019-04-29T08:30:52.841Z,306.23
2019-04-29T08:31:57.305Z,305.98
2019-04-29T08:32:53.803Z,306.03
2019-04-29T08:33:52.819Z,306.35
2019-04-29T08:34:53.613Z,306.21
2019-04-29T08:35:52.794Z,305.98
2019-04-29T08:36:52.773Z,306.48
2019-04-29T08:37:52.765Z,306.08
2019-04-29T08:38:52.756Z,306.55
2019-04-29T08:40:08.473Z,306.02
2019-04-29T08:40:53.748Z,306.25
2019-04-29T08:41:52.719Z,306.26
2019-04-29T08:42:52.704Z,306.26
2019-04-29T08:43:57.766Z,306.42
2019-04-29T08:44:54.792Z,306.50
2019-04-29T08:45:53.721Z,306.05
2019-04-29T08:46:52.906Z,305.86
2019-04-29T08:47:52.652Z,305.94
2019-04-29T08:48:52.649Z,306.26
2019-04-29T08:49:52.652Z,306.54
2019-04-29T08:50:52.644Z,305.81
2019-04-29T08:51:52.617Z,307.06
2019-04-29T08:52:52.585Z,305.95
2019-04-29T08:53:52.575Z,306.03
2019-04-29T08:54:55.478Z,306.03
2019-04-29T08:55:52.596Z,306.59
2019-04-29T08:57:02.789Z,306.52
2019-04-29T08:57:53.553Z,306.08
2019-04-29T08:58:52.536Z,305.77
2019-04-29T08:59:52.514Z,306.46
2019-04-29T09:00:55.707Z,306.20
2019-04-29T09:01:52.498Z,306.32
2019-04-29T09:02:52.484Z,306.48
2019-04-29T09:03:53.632Z,306.10
2019-04-29T09:04:54.077Z,306.88
2019-04-29T09:06:05.071Z,306.64
2019-04-29T09:06:53.454Z,306.85
2019-04-29T09:07:56.778Z,307.21
2019-04-29T09:08:55.088Z,306.76
2019-04-29T09:09:56.290Z,306.25
2019-04-29T09:10:53.437Z,306.35
2019-04-29T09:11:52.404Z,306.83
2019-04-29T09:12:52.406Z,307.24
2019-04-29T09:13:52.386Z,306.99
2019-04-29T09:14:52.396Z,307.12
2019-04-29T09:15:52.358Z,307.09
2019-04-29T09:16:52.376Z,306.86
2019-04-29T09:17:52.321Z,307.25
2019-04-29T09:18:52.300Z,307.24
2019-04-29T09:19:52.322Z,307.41
2019-04-29T09:20:52.296Z,307.60
2019-04-29T09:21:52.283Z,307.17
2019-04-29T09:22:52.268Z,307.77
2019-04-29T09:23:52.266Z,307.04
2019-04-29T09:24:52.276Z,307.09
2019-04-29T09:26:02.593Z,307.10
2019-04-29T09:26:53.218Z,306.66
2019-04-29T09:27:52.238Z,307.51
2019-04-29T09:28:52.207Z,306.34
2019-04-29T09:29:54.299Z,307.25
2019-04-29T09:30:53.192Z,306.85
2019-04-29T09:31:52.166Z,306.46
2019-04-29T09:32:52.167Z,306.34
2019-04-29T09:33:59.689Z,306.46
2019-04-29T09:34:55.501Z,306.03
2019-04-29T09:35:53.141Z,306.02
2019-04-29T09:36:52.100Z,306.41
2019-04-29T09:37:53.872Z,306.68
2019-04-29T09:38:53.081Z,306.11
2019-04-29T09:39:52.072Z,305.38
2019-04-29T09:40:54.513Z,305.94
2019-04-29T09:41:53.051Z,305.80
2019-04-29T09:42:52.041Z,305.80
2019-04-29T09:43:52.052Z,305.67
2019-04-29T09:44:52.022Z,305.96
2019-04-29T09:45:53.918Z,305.70
2019-04-29T09:46:52.984Z,305.83
2019-04-29T09:47:51.978Z,305.88
2019-04-29T09:48:52.024Z,305.82
2019-04-29T09:49:51.970Z,305.85
2019-04-29T09:50:51.942Z,305.87
2019-04-29T09:51:51.931Z,306.10
2019-04-29T09:52:51.922Z,306.24
2019-04-29T09:53:51.939Z,305.48
2019-04-29T09:54:51.919Z,305.30
2019-04-29T09:55:51.903Z,305.72
2019-04-29T09:56:51.902Z,305.66
2019-04-29T09:57:51.875Z,305.84
2019-04-29T09:58:51.854Z,305.49
2019-04-29T09:59:51.845Z,305.42
2019-04-29T10:00:51.838Z,305.47
2019-04-29T10:01:54.993Z,305.87
2019-04-29T10:02:51.820Z,305.50
2019-04-29T10:03:51.812Z,305.59
2019-04-29T10:04:56.894Z,305.91
2019-04-29T10:05:52.775Z,305.32
2019-04-29T10:06:51.791Z,305.37
2019-04-29T10:07:51.763Z,305.54
2019-04-29T10:08:51.745Z,305.91
2019-04-29T10:09:57.555Z,305.18
2019-04-29T10:10:52.726Z,305.52
2019-04-29T10:11:51.727Z,305.36
2019-04-29T10:12:53.889Z,305.62
2019-04-29T10:13:51.704Z,306.12
2019-04-29T10:14:51.684Z,306.31
2019-04-29T10:15:51.669Z,306.29
2019-04-29T10:16:51.689Z,306.18
2019-04-29T10:17:55.482Z,305.65
2019-04-29T10:18:51.633Z,305.22
2019-04-29T10:19:51.623Z,305.52
2019-04-29T10:20:51.624Z,305.69
2019-04-29T10:21:51.632Z,305.25
2019-04-29T10:22:53.706Z,305.28
2019-04-29T10:23:51.579Z,306.06
2019-04-29T10:24:51.580Z,305.28
2019-04-29T10:25:51.557Z,306.08
2019-04-29T10:26:51.552Z,304.96
2019-04-29T10:27:51.572Z,306.13
2019-04-29T10:28:51.525Z,305.90
2019-04-29T10:29:55.355Z,305.64
2019-04-29T10:30:52.502Z,305.66
2019-04-29T10:31:51.482Z,304.97
2019-04-29T10:32:51.526Z,305.53
2019-04-29T10:33:54.819Z,305.40
2019-04-29T10:34:51.468Z,305.33
2019-04-29T10:35:51.460Z,305.52
2019-04-29T10:36:52.570Z,305.10
2019-04-29T10:37:51.443Z,305.75
2019-04-29T10:38:51.430Z,305.56
2019-04-29T10:39:51.473Z,305.85
2019-04-29T10:40:51.396Z,305.57
2019-04-29T10:41:51.381Z,305.17
2019-04-29T10:42:51.376Z,305.43
2019-04-29T10:43:53.555Z,305.81
2019-04-29T10:44:51.358Z,305.73
2019-04-29T10:45:51.343Z,305.80
2019-04-29T10:46:51.338Z,305.86
2019-04-29T10:47:51.347Z,305.88
2019-04-29T10:48:51.298Z,305.13
2019-04-29T10:49:51.325Z,305.85
2019-04-29T10:50:51.987Z,305.65
2019-04-29T10:51:51.268Z,305.77
2019-04-29T10:52:51.288Z,305.66
2019-04-29T10:53:52.655Z,306.23
2019-04-29T10:54:55.214Z,306.02
2019-04-29T10:55:52.214Z,306.12
2019-04-29T10:56:51.219Z,305.79
2019-04-29T10:57:51.498Z,305.65
2019-04-29T10:58:51.217Z,305.71
2019-04-29T10:59:51.221Z,306.37
2019-04-29T11:00:52.746Z,305.66
2019-04-29T11:02:00.991Z,306.21
2019-04-29T11:02:52.139Z,305.48
2019-04-29T11:03:51.152Z,305.55
2019-04-29T11:04:51.135Z,305.95
2019-04-29T11:06:00.434Z,306.28
2019-04-29T11:06:52.112Z,305.85
2019-04-29T11:07:51.096Z,306.47
2019-04-29T11:08:51.105Z,306.17
2019-04-29T11:09:52.536Z,306.25
2019-04-29T11:10:51.061Z,305.81
2019-04-29T11:11:51.043Z,306.00
2019-04-29T11:12:51.037Z,305.68
2019-04-29T11:13:51.055Z,305.78
2019-04-29T11:14:51.006Z,305.21
2019-04-29T11:15:51.312Z,306.74
2019-04-29T11:16:50.998Z,305.38
2019-04-29T11:17:58.842Z,305.80
2019-04-29T11:18:55.036Z,305.73
2019-04-29T11:19:51.970Z,305.88
2019-04-29T11:20:53.801Z,306.01
2019-04-29T11:21:50.947Z,305.89
2019-04-29T11:22:50.923Z,306.07
2019-04-29T11:23:54.718Z,305.59
2019-04-29T11:24:51.930Z,305.79
2019-04-29T11:25:51.549Z,305.86
2019-04-29T11:26:50.872Z,305.81
2019-04-29T11:27:50.868Z,305.07
2019-04-29T11:28:52.250Z,306.02
2019-04-29T11:29:50.875Z,305.06
2019-04-29T11:30:50.864Z,305.92
2019-04-29T11:31:54.043Z,305.80
2019-04-29T11:32:50.823Z,305.82
2019-04-29T11:33:50.811Z,305.56
2019-04-29T11:34:53.406Z,305.82
2019-04-29T11:35:50.799Z,305.83
2019-04-29T11:36:50.783Z,305.85
2019-04-29T11:37:55.356Z,306.26
2019-04-29T11:38:51.785Z,305.24
2019-04-29T11:39:51.724Z,306.19
2019-04-29T11:40:50.730Z,306.00
2019-04-29T11:41:54.700Z,305.51
2019-04-29T11:42:51.717Z,305.91
2019-04-29T11:43:51.495Z,306.28
2019-04-29T11:44:50.701Z,305.54
2019-04-29T11:45:50.672Z,305.50
2019-04-29T11:46:50.771Z,306.58
2019-04-29T11:47:50.640Z,306.12
2019-04-29T11:48:50.643Z,305.97
2019-04-29T11:49:50.654Z,305.62
2019-04-29T11:50:54.743Z,306.13
2019-04-29T11:52:08.252Z,305.23
2019-04-29T11:52:51.611Z,306.02
2019-04-29T11:53:50.633Z,305.50
2019-04-29T11:54:50.580Z,304.95
2019-04-29T11:55:52.460Z,305.51
2019-04-29T11:56:51.570Z,305.76
2019-04-29T11:57:50.545Z,305.67
2019-04-29T11:58:50.525Z,305.51
2019-04-29T11:59:50.548Z,305.28
2019-04-29T12:00:52.127Z,305.64
2019-04-29T12:01:51.722Z,305.82
2019-04-29T12:02:50.495Z,305.41
2019-04-29T12:03:51.341Z,305.44
2019-04-29T12:04:51.460Z,305.62
2019-04-29T12:05:50.480Z,305.80
2019-04-29T12:06:51.331Z,306.08
2019-04-29T12:07:51.442Z,305.27
2019-04-29T12:08:53.396Z,305.98
2019-04-29T12:09:50.427Z,305.83
2019-04-29T12:11:06.052Z,305.96
2019-04-29T12:11:51.410Z,305.65
2019-04-29T12:12:50.468Z,306.25
2019-04-29T12:13:50.364Z,305.76
2019-04-29T12:14:50.357Z,305.44
2019-04-29T12:15:50.364Z,306.18
2019-04-29T12:16:50.343Z,305.95
2019-04-29T12:17:50.313Z,305.92
2019-04-29T12:18:50.314Z,306.16
2019-04-29T12:19:50.306Z,306.44
2019-04-29T12:20:50.294Z,306.01
2019-04-29T12:21:50.303Z,305.72
2019-04-29T12:22:50.300Z,306.12
2019-04-29T12:23:52.004Z,305.63
2019-04-29T12:24:50.250Z,305.67
2019-04-29T12:25:50.231Z,305.52
2019-04-29T12:26:50.213Z,306.03
2019-04-29T12:27:52.807Z,305.87
2019-04-29T12:28:51.230Z,305.93